Palermo, Maine
Current Conditions -  °F | °C
As of 3:15 PM on Wednesday 26 Nov 2014 (Local Time) from KWVL Reporting Station
Overcast Overcast  
Wind Chill: 28°   Ceiling: 500
Heat Index: 34°   Visibility: 0.25mi
Dew Point: 28°   Wind: 7mph
Humidity: 81%   Direction: 20°NNE
Pressure: 30.14"   Gusts: NA
Location:  44.41°N, 69.47°W
Report Text: KWVL 262015Z 02006KT 1/4SM OVC005 01/M02 A3014 RMK AO1
Loading
Personal Weather Stations






























Interactive Weather Map New forecast layout! Learn more

10-Day Weather Forecast

Advertisements
Track Severe Weather on mobile